sensor_id;sensor_type;location;lat;lon;timestamp;P1;durP1;ratioP1;P2;durP2;ratioP2
61356;SDS011;47227;46.752;23.576;2023-04-01T00:02:58;25.60;;;16.60;;
61356;SDS011;47227;46.752;23.576;2023-04-01T00:05:30;20.70;;;15.60;;
61356;SDS011;47227;46.752;23.576;2023-04-01T00:08:40;22.80;;;15.60;;
61356;SDS011;47227;46.752;23.576;2023-04-01T00:11:30;19.60;;;15.30;;
61356;SDS011;47227;46.752;23.576;2023-04-01T00:14:03;21.50;;;15.30;;
61356;SDS011;47227;46.752;23.576;2023-04-01T00:16:38;21.00;;;15.30;;
61356;SDS011;47227;46.752;23.576;2023-04-01T00:19:27;18.70;;;15.10;;
61356;SDS011;47227;46.752;23.576;2023-04-01T00:22:04;22.00;;;16.50;;
61356;SDS011;47227;46.752;23.576;2023-04-01T00:25:13;19.80;;;14.40;;
61356;SDS011;47227;46.752;23.576;2023-04-01T00:27:45;23.70;;;15.70;;
61356;SDS011;47227;46.752;23.576;2023-04-01T00:30:17;24.50;;;15.70;;
61356;SDS011;47227;46.752;23.576;2023-04-01T00:33:26;21.60;;;15.70;;
61356;SDS011;47227;46.752;23.576;2023-04-01T00:36:16;19.80;;;15.20;;
61356;SDS011;47227;46.752;23.576;2023-04-01T00:39:07;22.20;;;15.70;;
61356;SDS011;47227;46.752;23.576;2023-04-01T00:42:11;23.60;;;16.60;;
61356;SDS011;47227;46.752;23.576;2023-04-01T00:44:45;21.70;;;16.20;;
61356;SDS011;47227;46.752;23.576;2023-04-01T00:47:18;22.80;;;17.00;;
61356;SDS011;47227;46.752;23.576;2023-04-01T00:50:07;21.80;;;15.80;;
61356;SDS011;47227;46.752;23.576;2023-04-01T00:53:16;21.70;;;16.90;;
61356;SDS011;47227;46.752;23.576;2023-04-01T00:55:51;21.90;;;16.50;;
61356;SDS011;47227;46.752;23.576;2023-04-01T00:58:44;22.60;;;16.70;;
61356;SDS011;47227;46.752;23.576;2023-04-01T01:01:36;21.80;;;16.30;;
61356;SDS011;47227;46.752;23.576;2023-04-01T01:04:27;25.20;;;18.40;;
61356;SDS011;47227;46.752;23.576;2023-04-01T01:10:17;28.10;;;19.90;;
61356;SDS011;47227;46.752;23.576;2023-04-01T01:16:11;26.80;;;19.30;;
61356;SDS011;47227;46.752;23.576;2023-04-01T01:18:59;26.90;;;19.90;;
61356;SDS011;47227;46.752;23.576;2023-04-01T01:21:50;25.90;;;18.00;;
61356;SDS011;47227;46.752;23.576;2023-04-01T01:25:04;25.70;;;16.40;;
61356;SDS011;47227;46.752;23.576;2023-04-01T01:27:54;24.50;;;15.90;;
61356;SDS011;47227;46.752;23.576;2023-04-01T01:30:51;21.30;;;15.60;;
61356;SDS011;47227;46.752;23.576;2023-04-01T01:33:55;20.80;;;15.20;;
61356;SDS011;47227;46.752;23.576;2023-04-01T01:36:59;19.80;;;15.70;;
61356;SDS011;47227;46.752;23.576;2023-04-01T01:39:36;22.60;;;15.00;;
61356;SDS011;47227;46.752;23.576;2023-04-01T01:42:15;19.80;;;15.30;;
61356;SDS011;47227;46.752;23.576;2023-04-01T01:45:21;18.80;;;15.00;;
61356;SDS011;47227;46.752;23.576;2023-04-01T01:48:18;22.10;;;15.20;;
61356;SDS011;47227;46.752;23.576;2023-04-01T01:51:27;26.00;;;16.00;;
61356;SDS011;47227;46.752;23.576;2023-04-01T01:54:35;20.50;;;15.70;;
61356;SDS011;47227;46.752;23.576;2023-04-01T01:57:06;17.80;;;15.10;;
61356;SDS011;47227;46.752;23.576;2023-04-01T02:00:14;23.00;;;15.90;;
61356;SDS011;47227;46.752;23.576;2023-04-01T02:03:07;19.30;;;15.20;;
61356;SDS011;47227;46.752;23.576;2023-04-01T02:06:41;21.30;;;15.10;;
61356;SDS011;47227;46.752;23.576;2023-04-01T02:09:50;21.10;;;15.40;;
61356;SDS011;47227;46.752;23.576;2023-04-01T02:12:56;20.20;;;15.50;;
61356;SDS011;47227;46.752;23.576;2023-04-01T02:16:13;20.60;;;15.50;;
61356;SDS011;47227;46.752;23.576;2023-04-01T02:19:41;21.20;;;16.70;;
61356;SDS011;47227;46.752;23.576;2023-04-01T02:22:55;22.60;;;17.30;;
61356;SDS011;47227;46.752;23.576;2023-04-01T02:26:05;25.40;;;18.10;;
61356;SDS011;47227;46.752;23.576;2023-04-01T02:29:11;23.50;;;18.20;;
61356;SDS011;47227;46.752;23.576;2023-04-01T02:32:23;22.20;;;17.70;;
61356;SDS011;47227;46.752;23.576;2023-04-01T02:35:58;21.20;;;16.10;;
61356;SDS011;47227;46.752;23.576;2023-04-01T02:39:40;20.10;;;16.90;;
61356;SDS011;47227;46.752;23.576;2023-04-01T02:43:21;23.00;;;18.10;;
61356;SDS011;47227;46.752;23.576;2023-04-01T02:47:02;28.90;;;19.60;;
61356;SDS011;47227;46.752;23.576;2023-04-01T02:50:20;27.20;;;20.10;;
61356;SDS011;47227;46.752;23.576;2023-04-01T02:52:49;29.50;;;19.70;;
61356;SDS011;47227;46.752;23.576;2023-04-01T02:55:17;24.50;;;18.90;;
61356;SDS011;47227;46.752;23.576;2023-04-01T02:57:46;26.40;;;18.60;;
61356;SDS011;47227;46.752;23.576;2023-04-01T03:00:14;26.00;;;17.80;;
61356;SDS011;47227;46.752;23.576;2023-04-01T03:02:44;23.40;;;17.70;;
61356;SDS011;47227;46.752;23.576;2023-04-01T03:05:12;24.00;;;17.40;;
61356;SDS011;47227;46.752;23.576;2023-04-01T03:07:40;24.60;;;17.60;;
61356;SDS011;47227;46.752;23.576;2023-04-01T03:10:09;25.20;;;17.80;;
61356;SDS011;47227;46.752;23.576;2023-04-01T03:12:37;24.30;;;16.80;;
61356;SDS011;47227;46.752;23.576;2023-04-01T03:15:12;26.40;;;17.40;;
61356;SDS011;47227;46.752;23.576;2023-04-01T03:17:42;26.30;;;19.00;;
61356;SDS011;47227;46.752;23.576;2023-04-01T03:20:11;28.70;;;18.80;;
61356;SDS011;47227;46.752;23.576;2023-04-01T03:22:40;28.10;;;18.80;;
61356;SDS011;47227;46.752;23.576;2023-04-01T03:25:09;28.70;;;18.00;;
61356;SDS011;47227;46.752;23.576;2023-04-01T03:27:39;21.50;;;16.10;;
61356;SDS011;47227;46.752;23.576;2023-04-01T03:30:08;20.30;;;15.90;;
61356;SDS011;47227;46.752;23.576;2023-04-01T03:32:41;21.90;;;16.10;;
61356;SDS011;47227;46.752;23.576;2023-04-01T03:35:10;23.80;;;17.30;;
61356;SDS011;47227;46.752;23.576;2023-04-01T03:37:43;23.30;;;17.20;;
61356;SDS011;47227;46.752;23.576;2023-04-01T03:40:12;20.90;;;16.40;;
61356;SDS011;47227;46.752;23.576;2023-04-01T03:42:40;22.70;;;18.30;;
61356;SDS011;47227;46.752;23.576;2023-04-01T03:45:10;24.60;;;19.00;;
61356;SDS011;47227;46.752;23.576;2023-04-01T03:47:40;24.90;;;18.80;;
61356;SDS011;47227;46.752;23.576;2023-04-01T03:50:08;24.70;;;18.20;;
61356;SDS011;47227;46.752;23.576;2023-04-01T03:52:37;25.90;;;19.20;;
61356;SDS011;47227;46.752;23.576;2023-04-01T03:55:06;27.70;;;20.20;;
61356;SDS011;47227;46.752;23.576;2023-04-01T03:57:35;27.30;;;20.20;;
61356;SDS011;47227;46.752;23.576;2023-04-01T04:00:06;26.70;;;19.20;;
61356;SDS011;47227;46.752;23.576;2023-04-01T04:02:40;27.20;;;20.00;;
61356;SDS011;47227;46.752;23.576;2023-04-01T04:05:09;27.20;;;19.30;;
61356;SDS011;47227;46.752;23.576;2023-04-01T04:07:38;25.50;;;18.10;;
61356;SDS011;47227;46.752;23.576;2023-04-01T04:10:07;26.40;;;18.10;;
61356;SDS011;47227;46.752;23.576;2023-04-01T04:12:35;23.40;;;17.40;;
61356;SDS011;47227;46.752;23.576;2023-04-01T04:15:03;21.20;;;16.50;;
61356;SDS011;47227;46.752;23.576;2023-04-01T04:17:32;21.30;;;17.00;;
61356;SDS011;47227;46.752;23.576;2023-04-01T04:20:00;24.10;;;17.00;;
61356;SDS011;47227;46.752;23.576;2023-04-01T04:22:29;21.30;;;16.00;;
61356;SDS011;47227;46.752;23.576;2023-04-01T04:24:57;22.10;;;16.40;;
61356;SDS011;47227;46.752;23.576;2023-04-01T04:27:25;20.20;;;16.30;;
61356;SDS011;47227;46.752;23.576;2023-04-01T04:30:01;23.60;;;17.80;;
61356;SDS011;47227;46.752;23.576;2023-04-01T04:32:30;18.60;;;15.60;;
61356;SDS011;47227;46.752;23.576;2023-04-01T04:34:58;22.60;;;16.60;;
61356;SDS011;47227;46.752;23.576;2023-04-01T04:37:26;23.60;;;17.70;;
61356;SDS011;47227;46.752;23.576;2023-04-01T04:39:54;21.30;;;17.40;;
61356;SDS011;47227;46.752;23.576;2023-04-01T04:42:22;24.50;;;18.30;;
61356;SDS011;47227;46.752;23.576;2023-04-01T04:44:53;27.60;;;20.40;;
61356;SDS011;47227;46.752;23.576;2023-04-01T04:47:21;30.00;;;22.10;;
61356;SDS011;47227;46.752;23.576;2023-04-01T04:49:49;27.70;;;21.10;;
61356;SDS011;47227;46.752;23.576;2023-04-01T04:52:18;31.30;;;22.10;;
61356;SDS011;47227;46.752;23.576;2023-04-01T04:54:45;35.90;;;24.20;;
61356;SDS011;47227;46.752;23.576;2023-04-01T04:57:13;35.70;;;25.40;;
61356;SDS011;47227;46.752;23.576;2023-04-01T04:59:46;37.50;;;25.50;;
61356;SDS011;47227;46.752;23.576;2023-04-01T05:02:22;36.60;;;25.10;;
61356;SDS011;47227;46.752;23.576;2023-04-01T05:04:50;37.60;;;27.00;;
61356;SDS011;47227;46.752;23.576;2023-04-01T05:07:18;37.00;;;26.10;;
61356;SDS011;47227;46.752;23.576;2023-04-01T05:09:46;32.50;;;23.90;;
61356;SDS011;47227;46.752;23.576;2023-04-01T05:12:14;32.30;;;22.90;;
61356;SDS011;47227;46.752;23.576;2023-04-01T05:14:55;29.30;;;22.10;;
61356;SDS011;47227;46.752;23.576;2023-04-01T05:17:23;29.50;;;22.00;;
61356;SDS011;47227;46.752;23.576;2023-04-01T05:19:52;30.10;;;21.70;;
61356;SDS011;47227;46.752;23.576;2023-04-01T05:22:20;27.80;;;20.60;;
61356;SDS011;47227;46.752;23.576;2023-04-01T05:24:48;31.70;;;20.90;;
61356;SDS011;47227;46.752;23.576;2023-04-01T05:27:16;30.90;;;20.60;;
61356;SDS011;47227;46.752;23.576;2023-04-01T05:29:44;28.20;;;19.70;;
61356;SDS011;47227;46.752;23.576;2023-04-01T05:32:30;30.00;;;21.00;;
61356;SDS011;47227;46.752;23.576;2023-04-01T05:34:58;27.30;;;19.90;;
61356;SDS011;47227;46.752;23.576;2023-04-01T05:37:26;28.80;;;19.30;;
61356;SDS011;47227;46.752;23.576;2023-04-01T05:39:54;27.30;;;18.60;;
61356;SDS011;47227;46.752;23.576;2023-04-01T05:42:22;26.60;;;19.60;;
61356;SDS011;47227;46.752;23.576;2023-04-01T05:44:50;27.70;;;20.80;;
61356;SDS011;47227;46.752;23.576;2023-04-01T05:47:36;28.40;;;21.00;;
61356;SDS011;47227;46.752;23.576;2023-04-01T05:50:04;33.40;;;23.00;;
61356;SDS011;47227;46.752;23.576;2023-04-01T05:52:32;31.80;;;23.30;;
61356;SDS011;47227;46.752;23.576;2023-04-01T05:55:00;33.00;;;22.40;;
61356;SDS011;47227;46.752;23.576;2023-04-01T05:57:28;29.50;;;21.60;;
61356;SDS011;47227;46.752;23.576;2023-04-01T05:59:56;31.50;;;21.90;;
61356;SDS011;47227;46.752;23.576;2023-04-01T06:02:24;30.80;;;21.00;;
61356;SDS011;47227;46.752;23.576;2023-04-01T06:04:54;33.40;;;22.40;;
61356;SDS011;47227;46.752;23.576;2023-04-01T06:07:30;33.50;;;22.90;;
61356;SDS011;47227;46.752;23.576;2023-04-01T06:09:58;34.10;;;24.50;;
61356;SDS011;47227;46.752;23.576;2023-04-01T06:15:18;57.30;;;35.10;;
61356;SDS011;47227;46.752;23.576;2023-04-01T06:26:59;34.80;;;23.50;;
61356;SDS011;47227;46.752;23.576;2023-04-01T06:29:54;31.00;;;22.10;;
61356;SDS011;47227;46.752;23.576;2023-04-01T06:32:51;32.00;;;21.00;;
61356;SDS011;47227;46.752;23.576;2023-04-01T06:41:27;25.00;;;19.10;;
61356;SDS011;47227;46.752;23.576;2023-04-01T06:44:25;29.00;;;20.00;;
61356;SDS011;47227;46.752;23.576;2023-04-01T06:50:44;32.10;;;20.90;;
61356;SDS011;47227;46.752;23.576;2023-04-01T06:53:44;26.60;;;20.10;;
61356;SDS011;47227;46.752;23.576;2023-04-01T06:56:52;30.80;;;21.10;;
61356;SDS011;47227;46.752;23.576;2023-04-01T06:59:28;31.00;;;22.00;;
61356;SDS011;47227;46.752;23.576;2023-04-01T07:04:50;31.50;;;21.90;;
61356;SDS011;47227;46.752;23.576;2023-04-01T07:07:29;29.30;;;20.40;;
61356;SDS011;47227;46.752;23.576;2023-04-01T07:13:25;32.40;;;22.40;;
61356;SDS011;47227;46.752;23.576;2023-04-01T07:16:11;30.60;;;21.40;;
61356;SDS011;47227;46.752;23.576;2023-04-01T07:21:40;32.30;;;21.60;;
61356;SDS011;47227;46.752;23.576;2023-04-01T07:24:34;34.60;;;22.70;;
61356;SDS011;47227;46.752;23.576;2023-04-01T07:27:09;34.80;;;23.10;;
61356;SDS011;47227;46.752;23.576;2023-04-01T07:29:39;32.50;;;23.00;;
61356;SDS011;47227;46.752;23.576;2023-04-01T07:32:14;36.10;;;24.20;;
61356;SDS011;47227;46.752;23.576;2023-04-01T07:35:09;36.60;;;24.20;;
61356;SDS011;47227;46.752;23.576;2023-04-01T07:37:55;33.70;;;22.00;;
61356;SDS011;47227;46.752;23.576;2023-04-01T07:40:41;37.60;;;24.00;;
61356;SDS011;47227;46.752;23.576;2023-04-01T07:43:28;39.40;;;26.50;;
61356;SDS011;47227;46.752;23.576;2023-04-01T07:49:16;35.70;;;24.40;;
61356;SDS011;47227;46.752;23.576;2023-04-01T07:52:00;36.70;;;24.70;;
61356;SDS011;47227;46.752;23.576;2023-04-01T07:57:23;30.20;;;21.00;;
61356;SDS011;47227;46.752;23.576;2023-04-01T08:00:02;33.60;;;23.10;;
61356;SDS011;47227;46.752;23.576;2023-04-01T08:02:51;30.40;;;20.60;;
61356;SDS011;47227;46.752;23.576;2023-04-01T08:05:41;34.00;;;22.90;;
61356;SDS011;47227;46.752;23.576;2023-04-01T08:08:26;29.20;;;20.50;;
61356;SDS011;47227;46.752;23.576;2023-04-01T08:11:41;25.70;;;19.60;;
61356;SDS011;47227;46.752;23.576;2023-04-01T08:20:45;31.50;;;23.30;;
61356;SDS011;47227;46.752;23.576;2023-04-01T08:23:30;32.90;;;24.00;;
61356;SDS011;47227;46.752;23.576;2023-04-01T08:26:10;36.80;;;24.20;;
61356;SDS011;47227;46.752;23.576;2023-04-01T08:28:51;38.00;;;25.90;;
61356;SDS011;47227;46.752;23.576;2023-04-01T08:34:43;33.00;;;24.20;;
61356;SDS011;47227;46.752;23.576;2023-04-01T08:37:45;37.40;;;24.30;;
61356;SDS011;47227;46.752;23.576;2023-04-01T08:40:59;36.20;;;23.20;;
61356;SDS011;47227;46.752;23.576;2023-04-01T08:47:35;28.90;;;20.80;;
61356;SDS011;47227;46.752;23.576;2023-04-01T09:00:36;14.90;;;10.70;;
61356;SDS011;47227;46.752;23.576;2023-04-01T09:03:36;18.30;;;12.60;;
61356;SDS011;47227;46.752;23.576;2023-04-01T09:06:24;17.70;;;12.60;;
61356;SDS011;47227;46.752;23.576;2023-04-01T09:09:21;21.30;;;13.70;;
61356;SDS011;47227;46.752;23.576;2023-04-01T09:15:55;19.80;;;13.50;;
61356;SDS011;47227;46.752;23.576;2023-04-01T09:19:18;13.40;;;10.50;;
61356;SDS011;47227;46.752;23.576;2023-04-01T09:22:25;13.40;;;10.80;;
61356;SDS011;47227;46.752;23.576;2023-04-01T09:31:48;13.70;;;11.90;;
61356;SDS011;47227;46.752;23.576;2023-04-01T09:35:22;17.50;;;13.90;;
61356;SDS011;47227;46.752;23.576;2023-04-01T09:38:26;15.60;;;13.80;;
61356;SDS011;47227;46.752;23.576;2023-04-01T09:41:32;17.90;;;14.40;;
61356;SDS011;47227;46.752;23.576;2023-04-01T09:44:37;19.30;;;15.70;;
61356;SDS011;47227;46.752;23.576;2023-04-01T09:48:08;15.70;;;13.00;;
61356;SDS011;47227;46.752;23.576;2023-04-01T09:54:22;17.50;;;13.60;;
61356;SDS011;47227;46.752;23.576;2023-04-01T09:57:21;16.70;;;14.50;;
61356;SDS011;47227;46.752;23.576;2023-04-01T10:01:02;17.40;;;13.70;;
61356;SDS011;47227;46.752;23.576;2023-04-01T10:04:17;16.50;;;14.10;;
61356;SDS011;47227;46.752;23.576;2023-04-01T10:07:51;17.10;;;13.30;;
61356;SDS011;47227;46.752;23.576;2023-04-01T10:14:18;15.60;;;13.50;;
61356;SDS011;47227;46.752;23.576;2023-04-01T10:17:44;16.50;;;13.00;;
61356;SDS011;47227;46.752;23.576;2023-04-01T10:24:21;17.10;;;12.80;;
61356;SDS011;47227;46.752;23.576;2023-04-01T10:27:30;14.40;;;12.60;;
61356;SDS011;47227;46.752;23.576;2023-04-01T10:31:03;13.50;;;10.80;;
61356;SDS011;47227;46.752;23.576;2023-04-01T10:37:57;12.80;;;11.40;;
61356;SDS011;47227;46.752;23.576;2023-04-01T10:41:34;13.30;;;9.70;;
61356;SDS011;47227;46.752;23.576;2023-04-01T10:48:45;12.90;;;11.10;;
61356;SDS011;47227;46.752;23.576;2023-04-01T10:59:23;10.70;;;9.60;;
61356;SDS011;47227;46.752;23.576;2023-04-01T11:03:03;13.90;;;9.70;;
61356;SDS011;47227;46.752;23.576;2023-04-01T11:20:09;16.70;;;13.00;;
61356;SDS011;47227;46.752;23.576;2023-04-01T11:23:13;15.80;;;12.90;;
61356;SDS011;47227;46.752;23.576;2023-04-01T11:27:01;14.40;;;10.90;;
61356;SDS011;47227;46.752;23.576;2023-04-01T11:30:16;14.70;;;9.90;;
61356;SDS011;47227;46.752;23.576;2023-04-01T11:33:30;10.20;;;9.10;;
61356;SDS011;47227;46.752;23.576;2023-04-01T11:36:37;13.50;;;9.60;;
61356;SDS011;47227;46.752;23.576;2023-04-01T11:40:29;14.80;;;10.20;;
61356;SDS011;47227;46.752;23.576;2023-04-01T11:44:04;14.00;;;9.10;;
61356;SDS011;47227;46.752;23.576;2023-04-01T13:28:39;7.60;;;5.40;;
61356;SDS011;47227;46.752;23.576;2023-04-01T13:32:14;6.50;;;5.80;;
61356;SDS011;47227;46.752;23.576;2023-04-01T13:35:54;9.00;;;6.50;;
61356;SDS011;47227;46.752;23.576;2023-04-01T13:39:22;5.80;;;5.20;;
61356;SDS011;47227;46.752;23.576;2023-04-01T13:43:16;8.30;;;5.20;;
61356;SDS011;47227;46.752;23.576;2023-04-01T13:46:54;6.30;;;4.90;;
61356;SDS011;47227;46.752;23.576;2023-04-01T13:50:25;6.60;;;5.70;;
61356;SDS011;47227;46.752;23.576;2023-04-01T13:58:09;7.30;;;4.30;;
61356;SDS011;47227;46.752;23.576;2023-04-01T14:05:24;6.20;;;4.20;;
61356;SDS011;47227;46.752;23.576;2023-04-01T14:09:25;4.40;;;4.00;;
61356;SDS011;47227;46.752;23.576;2023-04-01T16:58:23;10.80;;;8.50;;
61356;SDS011;47227;46.752;23.576;2023-04-01T17:01:44;13.20;;;9.70;;
61356;SDS011;47227;46.752;23.576;2023-04-01T17:09:20;12.60;;;8.00;;
61356;SDS011;47227;46.752;23.576;2023-04-01T17:12:30;11.70;;;9.40;;
61356;SDS011;47227;46.752;23.576;2023-04-01T17:16:10;13.60;;;8.80;;
61356;SDS011;47227;46.752;23.576;2023-04-01T17:23:19;8.80;;;7.80;;
61356;SDS011;47227;46.752;23.576;2023-04-01T17:27:01;8.10;;;6.30;;
61356;SDS011;47227;46.752;23.576;2023-04-01T17:30:31;7.90;;;6.60;;
61356;SDS011;47227;46.752;23.576;2023-04-01T17:34:03;11.00;;;8.00;;
61356;SDS011;47227;46.752;23.576;2023-04-01T17:41:08;11.80;;;9.60;;
61356;SDS011;47227;46.752;23.576;2023-04-01T17:51:37;15.80;;;11.90;;
61356;SDS011;47227;46.752;23.576;2023-04-01T17:58:46;13.70;;;10.80;;
61356;SDS011;47227;46.752;23.576;2023-04-01T18:02:26;13.00;;;9.50;;
61356;SDS011;47227;46.752;23.576;2023-04-01T18:06:09;12.60;;;10.30;;
61356;SDS011;47227;46.752;23.576;2023-04-01T18:09:56;14.60;;;10.60;;
61356;SDS011;47227;46.752;23.576;2023-04-01T18:13:57;15.30;;;10.00;;
61356;SDS011;47227;46.752;23.576;2023-04-01T18:17:25;14.50;;;9.80;;
61356;SDS011;47227;46.752;23.576;2023-04-01T18:21:14;10.80;;;8.80;;
61356;SDS011;47227;46.752;23.576;2023-04-01T18:24:54;11.10;;;8.90;;
61356;SDS011;47227;46.752;23.576;2023-04-01T18:28:24;10.90;;;9.70;;
61356;SDS011;47227;46.752;23.576;2023-04-01T18:31:49;20.60;;;14.80;;
61356;SDS011;47227;46.752;23.576;2023-04-01T18:39:03;8.60;;;5.80;;
61356;SDS011;47227;46.752;23.576;2023-04-01T18:42:53;10.60;;;6.80;;
61356;SDS011;47227;46.752;23.576;2023-04-01T18:46:19;10.70;;;6.60;;
61356;SDS011;47227;46.752;23.576;2023-04-01T18:49:59;7.00;;;6.10;;
61356;SDS011;47227;46.752;23.576;2023-04-01T18:53:34;8.30;;;6.20;;
61356;SDS011;47227;46.752;23.576;2023-04-01T18:57:19;7.70;;;6.00;;
61356;SDS011;47227;46.752;23.576;2023-04-01T19:01:14;6.60;;;4.90;;
61356;SDS011;47227;46.752;23.576;2023-04-01T19:04:52;6.70;;;5.90;;
61356;SDS011;47227;46.752;23.576;2023-04-01T19:08:28;8.50;;;6.20;;
61356;SDS011;47227;46.752;23.576;2023-04-01T19:11:59;9.70;;;6.10;;
61356;SDS011;47227;46.752;23.576;2023-04-01T19:15:44;10.70;;;7.90;;
61356;SDS011;47227;46.752;23.576;2023-04-01T19:19:16;10.30;;;8.10;;
61356;SDS011;47227;46.752;23.576;2023-04-01T19:23:25;18.10;;;9.50;;
61356;SDS011;47227;46.752;23.576;2023-04-01T19:34:21;11.60;;;7.90;;
61356;SDS011;47227;46.752;23.576;2023-04-01T19:42:02;8.30;;;5.10;;
61356;SDS011;47227;46.752;23.576;2023-04-01T19:49:21;8.40;;;4.50;;
61356;SDS011;47227;46.752;23.576;2023-04-01T19:53:18;5.20;;;4.10;;
61356;SDS011;47227;46.752;23.576;2023-04-01T19:57:10;6.10;;;4.50;;
61356;SDS011;47227;46.752;23.576;2023-04-01T20:00:44;4.40;;;4.00;;
61356;SDS011;47227;46.752;23.576;2023-04-01T20:04:44;9.00;;;5.70;;
61356;SDS011;47227;46.752;23.576;2023-04-01T20:07:51;5.80;;;4.70;;
61356;SDS011;47227;46.752;23.576;2023-04-01T20:11:28;5.90;;;4.70;;
61356;SDS011;47227;46.752;23.576;2023-04-01T20:14:58;5.40;;;4.40;;
61356;SDS011;47227;46.752;23.576;2023-04-01T20:22:05;5.50;;;4.70;;
61356;SDS011;47227;46.752;23.576;2023-04-01T20:25:33;5.00;;;4.40;;
61356;SDS011;47227;46.752;23.576;2023-04-01T20:28:29;6.70;;;4.70;;
61356;SDS011;47227;46.752;23.576;2023-04-01T20:31:41;6.20;;;4.60;;
61356;SDS011;47227;46.752;23.576;2023-04-01T20:35:08;6.70;;;5.10;;
61356;SDS011;47227;46.752;23.576;2023-04-01T20:53:20;5.30;;;3.70;;
61356;SDS011;47227;46.752;23.576;2023-04-01T20:56:55;3.90;;;3.50;;
61356;SDS011;47227;46.752;23.576;2023-04-01T21:00:42;6.10;;;4.40;;
61356;SDS011;47227;46.752;23.576;2023-04-01T21:04:08;7.10;;;4.60;;
61356;SDS011;47227;46.752;23.576;2023-04-01T21:07:32;7.10;;;4.20;;
61356;SDS011;47227;46.752;23.576;2023-04-01T21:18:21;6.40;;;3.90;;
61356;SDS011;47227;46.752;23.576;2023-04-01T21:25:39;4.50;;;3.20;;
61356;SDS011;47227;46.752;23.576;2023-04-01T21:29:33;4.50;;;3.20;;
61356;SDS011;47227;46.752;23.576;2023-04-01T21:33:30;5.80;;;3.50;;
61356;SDS011;47227;46.752;23.576;2023-04-01T21:37:01;5.20;;;3.70;;
61356;SDS011;47227;46.752;23.576;2023-04-01T21:47:46;5.40;;;3.60;;
61356;SDS011;47227;46.752;23.576;2023-04-01T21:54:46;4.50;;;3.50;;
61356;SDS011;47227;46.752;23.576;2023-04-01T22:05:40;4.80;;;3.60;;
61356;SDS011;47227;46.752;23.576;2023-04-01T22:09:25;9.50;;;5.10;;
61356;SDS011;47227;46.752;23.576;2023-04-01T22:13:16;5.60;;;3.90;;
61356;SDS011;47227;46.752;23.576;2023-04-01T22:16:37;4.30;;;3.90;;
61356;SDS011;47227;46.752;23.576;2023-04-01T22:20:21;5.20;;;3.40;;
61356;SDS011;47227;46.752;23.576;2023-04-01T22:24:09;4.60;;;3.50;;
61356;SDS011;47227;46.752;23.576;2023-04-01T22:26:50;4.20;;;3.30;;
61356;SDS011;47227;46.752;23.576;2023-04-01T22:29:28;4.80;;;3.60;;
61356;SDS011;47227;46.752;23.576;2023-04-01T22:32:05;8.80;;;3.70;;
61356;SDS011;47227;46.752;23.576;2023-04-01T22:34:57;7.00;;;3.70;;
61356;SDS011;47227;46.752;23.576;2023-04-01T22:37:38;5.10;;;3.30;;
61356;SDS011;47227;46.752;23.576;2023-04-01T22:40:16;10.20;;;3.80;;
61356;SDS011;47227;46.752;23.576;2023-04-01T22:42:57;10.30;;;4.00;;
61356;SDS011;47227;46.752;23.576;2023-04-01T22:45:33;7.30;;;4.40;;
61356;SDS011;47227;46.752;23.576;2023-04-01T22:48:22;5.00;;;3.50;;
61356;SDS011;47227;46.752;23.576;2023-04-01T22:53:53;5.60;;;3.30;;
61356;SDS011;47227;46.752;23.576;2023-04-01T22:56:35;6.60;;;3.40;;
61356;SDS011;47227;46.752;23.576;2023-04-01T22:59:10;4.10;;;3.10;;
61356;SDS011;47227;46.752;23.576;2023-04-01T23:01:45;5.60;;;3.00;;
61356;SDS011;47227;46.752;23.576;2023-04-01T23:04:20;8.80;;;3.20;;
61356;SDS011;47227;46.752;23.576;2023-04-01T23:06:54;4.80;;;3.50;;
61356;SDS011;47227;46.752;23.576;2023-04-01T23:09:29;5.90;;;3.00;;
61356;SDS011;47227;46.752;23.576;2023-04-01T23:12:04;3.20;;;2.50;;
61356;SDS011;47227;46.752;23.576;2023-04-01T23:14:38;2.90;;;2.50;;
61356;SDS011;47227;46.752;23.576;2023-04-01T23:17:25;4.90;;;3.30;;
61356;SDS011;47227;46.752;23.576;2023-04-01T23:23:01;4.70;;;3.00;;
61356;SDS011;47227;46.752;23.576;2023-04-01T23:25:49;5.20;;;2.50;;
61356;SDS011;47227;46.752;23.576;2023-04-01T23:28:32;6.30;;;2.70;;
61356;SDS011;47227;46.752;23.576;2023-04-01T23:31:31;4.30;;;2.40;;
61356;SDS011;47227;46.752;23.576;2023-04-01T23:34:57;6.40;;;2.60;;
61356;SDS011;47227;46.752;23.576;2023-04-01T23:38:28;5.40;;;2.90;;
61356;SDS011;47227;46.752;23.576;2023-04-01T23:42:15;4.90;;;2.50;;
61356;SDS011;47227;46.752;23.576;2023-04-01T23:45:27;7.80;;;2.20;;
61356;SDS011;47227;46.752;23.576;2023-04-01T23:47:55;5.30;;;2.30;;
61356;SDS011;47227;46.752;23.576;2023-04-01T23:50:23;3.60;;;2.40;;
61356;SDS011;47227;46.752;23.576;2023-04-01T23:52:57;4.50;;;2.20;;
61356;SDS011;47227;46.752;23.576;2023-04-01T23:55:31;3.40;;;2.30;;
